sensor_id;sensor_type;location;lat;lon;timestamp;temperature;humidity
12568;DHT22;6349;50.904;6.136;2023-07-20T00:01:47;19.10;99.90
12568;DHT22;6349;50.904;6.136;2023-07-20T00:03:48;19.00;99.90
12568;DHT22;6349;50.904;6.136;2023-07-20T00:05:56;19.00;99.90
12568;DHT22;6349;50.904;6.136;2023-07-20T00:07:56;19.00;99.90
12568;DHT22;6349;50.904;6.136;2023-07-20T00:09:58;18.90;99.90
12568;DHT22;6349;50.904;6.136;2023-07-20T00:11:59;19.00;99.90
12568;DHT22;6349;50.904;6.136;2023-07-20T00:14:00;19.00;99.90
12568;DHT22;6349;50.904;6.136;2023-07-20T00:16:02;18.90;99.90
12568;DHT22;6349;50.904;6.136;2023-07-20T00:18:02;18.80;99.90
12568;DHT22;6349;50.904;6.136;2023-07-20T00:20:03;18.80;99.90
12568;DHT22;6349;50.904;6.136;2023-07-20T00:22:05;18.80;99.90
12568;DHT22;6349;50.904;6.136;2023-07-20T00:24:06;18.70;99.90
12568;DHT22;6349;50.904;6.136;2023-07-20T00:26:07;18.70;99.90
12568;DHT22;6349;50.904;6.136;2023-07-20T00:28:08;18.70;99.90
12568;DHT22;6349;50.904;6.136;2023-07-20T00:30:10;18.70;99.90
12568;DHT22;6349;50.904;6.136;2023-07-20T00:32:11;18.70;99.90
12568;DHT22;6349;50.904;6.136;2023-07-20T00:34:11;18.70;99.90
12568;DHT22;6349;50.904;6.136;2023-07-20T00:36:13;18.70;99.90
12568;DHT22;6349;50.904;6.136;2023-07-20T00:38:14;18.60;99.90
12568;DHT22;6349;50.904;6.136;2023-07-20T00:40:14;18.60;99.90
12568;DHT22;6349;50.904;6.136;2023-07-20T00:42:15;18.70;99.90
12568;DHT22;6349;50.904;6.136;2023-07-20T00:44:15;18.50;99.90
12568;DHT22;6349;50.904;6.136;2023-07-20T00:46:17;18.50;99.90
12568;DHT22;6349;50.904;6.136;2023-07-20T00:48:19;18.60;99.90
12568;DHT22;6349;50.904;6.136;2023-07-20T00:50:20;18.50;99.90
12568;DHT22;6349;50.904;6.136;2023-07-20T00:52:22;18.50;99.90
12568;DHT22;6349;50.904;6.136;2023-07-20T00:54:24;18.40;99.90
12568;DHT22;6349;50.904;6.136;2023-07-20T00:56:27;18.30;99.90
12568;DHT22;6349;50.904;6.136;2023-07-20T00:58:27;18.30;99.90
12568;DHT22;6349;50.904;6.136;2023-07-20T01:00:28;18.30;99.90
12568;DHT22;6349;50.904;6.136;2023-07-20T01:02:29;18.30;99.90
12568;DHT22;6349;50.904;6.136;2023-07-20T01:04:30;18.30;99.90
12568;DHT22;6349;50.904;6.136;2023-07-20T01:07:00;18.30;99.90
12568;DHT22;6349;50.904;6.136;2023-07-20T01:09:16;18.30;99.90
12568;DHT22;6349;50.904;6.136;2023-07-20T01:11:37;18.30;99.90
12568;DHT22;6349;50.904;6.136;2023-07-20T01:13:39;18.30;99.90
12568;DHT22;6349;50.904;6.136;2023-07-20T01:15:41;18.30;99.90
12568;DHT22;6349;50.904;6.136;2023-07-20T01:17:43;18.30;99.90
12568;DHT22;6349;50.904;6.136;2023-07-20T01:19:46;18.30;99.90
12568;DHT22;6349;50.904;6.136;2023-07-20T01:26:26;18.30;99.90
12568;DHT22;6349;50.904;6.136;2023-07-20T01:28:56;18.30;99.90
12568;DHT22;6349;50.904;6.136;2023-07-20T01:31:18;18.20;99.90
12568;DHT22;6349;50.904;6.136;2023-07-20T01:33:20;18.30;99.90
12568;DHT22;6349;50.904;6.136;2023-07-20T01:35:24;18.30;99.90
12568;DHT22;6349;50.904;6.136;2023-07-20T01:37:27;18.20;99.90
12568;DHT22;6349;50.904;6.136;2023-07-20T01:39:31;18.30;99.90
12568;DHT22;6349;50.904;6.136;2023-07-20T01:41:33;18.20;99.90
12568;DHT22;6349;50.904;6.136;2023-07-20T01:43:35;18.20;99.90
12568;DHT22;6349;50.904;6.136;2023-07-20T01:45:37;18.10;99.90
12568;DHT22;6349;50.904;6.136;2023-07-20T01:47:38;18.10;99.90
12568;DHT22;6349;50.904;6.136;2023-07-20T01:49:39;18.10;99.90
12568;DHT22;6349;50.904;6.136;2023-07-20T01:51:40;18.10;99.90
12568;DHT22;6349;50.904;6.136;2023-07-20T01:53:41;18.10;99.90
12568;DHT22;6349;50.904;6.136;2023-07-20T01:55:42;18.10;99.90
12568;DHT22;6349;50.904;6.136;2023-07-20T01:57:43;18.20;99.90
12568;DHT22;6349;50.904;6.136;2023-07-20T01:59:43;18.10;99.90
12568;DHT22;6349;50.904;6.136;2023-07-20T02:01:45;18.00;99.90
12568;DHT22;6349;50.904;6.136;2023-07-20T02:03:48;18.00;99.90
12568;DHT22;6349;50.904;6.136;2023-07-20T02:05:50;17.90;99.90
12568;DHT22;6349;50.904;6.136;2023-07-20T02:07:50;17.90;99.90
12568;DHT22;6349;50.904;6.136;2023-07-20T02:09:52;17.90;99.90
12568;DHT22;6349;50.904;6.136;2023-07-20T02:11:53;17.90;99.90
12568;DHT22;6349;50.904;6.136;2023-07-20T02:13:55;18.00;99.90
12568;DHT22;6349;50.904;6.136;2023-07-20T02:15:57;18.00;99.90
12568;DHT22;6349;50.904;6.136;2023-07-20T02:17:58;18.00;99.90
12568;DHT22;6349;50.904;6.136;2023-07-20T02:20:00;18.00;99.90
12568;DHT22;6349;50.904;6.136;2023-07-20T02:22:02;18.00;99.90
12568;DHT22;6349;50.904;6.136;2023-07-20T02:24:03;18.00;99.90
12568;DHT22;6349;50.904;6.136;2023-07-20T02:26:05;18.00;99.90
12568;DHT22;6349;50.904;6.136;2023-07-20T02:28:07;18.00;99.90
12568;DHT22;6349;50.904;6.136;2023-07-20T02:30:10;17.80;99.90
12568;DHT22;6349;50.904;6.136;2023-07-20T02:32:10;17.90;99.90
12568;DHT22;6349;50.904;6.136;2023-07-20T02:34:11;17.90;99.90
12568;DHT22;6349;50.904;6.136;2023-07-20T02:36:12;17.90;99.90
12568;DHT22;6349;50.904;6.136;2023-07-20T02:38:13;17.90;99.90
12568;DHT22;6349;50.904;6.136;2023-07-20T02:40:14;17.90;99.90
12568;DHT22;6349;50.904;6.136;2023-07-20T02:42:16;17.80;99.90
12568;DHT22;6349;50.904;6.136;2023-07-20T02:44:16;17.80;99.90
12568;DHT22;6349;50.904;6.136;2023-07-20T02:46:18;17.90;99.90
12568;DHT22;6349;50.904;6.136;2023-07-20T02:48:20;17.90;99.90
12568;DHT22;6349;50.904;6.136;2023-07-20T02:50:20;17.90;99.90
12568;DHT22;6349;50.904;6.136;2023-07-20T02:52:21;17.90;99.90
12568;DHT22;6349;50.904;6.136;2023-07-20T02:54:21;17.90;99.90
12568;DHT22;6349;50.904;6.136;2023-07-20T02:56:23;17.80;99.90
12568;DHT22;6349;50.904;6.136;2023-07-20T02:58:24;17.80;99.90
12568;DHT22;6349;50.904;6.136;2023-07-20T03:00:24;17.80;99.90
12568;DHT22;6349;50.904;6.136;2023-07-20T03:02:25;17.80;99.90
12568;DHT22;6349;50.904;6.136;2023-07-20T03:04:26;17.80;99.90
12568;DHT22;6349;50.904;6.136;2023-07-20T03:06:28;17.80;99.90
12568;DHT22;6349;50.904;6.136;2023-07-20T03:08:30;17.70;99.90
12568;DHT22;6349;50.904;6.136;2023-07-20T03:10:32;17.70;99.90
12568;DHT22;6349;50.904;6.136;2023-07-20T03:12:33;17.70;99.90
12568;DHT22;6349;50.904;6.136;2023-07-20T03:14:34;17.70;99.90
12568;DHT22;6349;50.904;6.136;2023-07-20T03:16:36;17.70;99.90
12568;DHT22;6349;50.904;6.136;2023-07-20T03:18:38;17.70;99.90
12568;DHT22;6349;50.904;6.136;2023-07-20T03:20:38;17.70;99.90
12568;DHT22;6349;50.904;6.136;2023-07-20T03:22:39;17.60;99.90
12568;DHT22;6349;50.904;6.136;2023-07-20T03:24:40;17.60;99.90
12568;DHT22;6349;50.904;6.136;2023-07-20T03:26:41;17.60;99.90
12568;DHT22;6349;50.904;6.136;2023-07-20T03:28:43;17.60;99.90
12568;DHT22;6349;50.904;6.136;2023-07-20T03:30:44;17.60;99.90
12568;DHT22;6349;50.904;6.136;2023-07-20T03:32:45;17.50;99.90
12568;DHT22;6349;50.904;6.136;2023-07-20T03:34:45;17.50;99.90
12568;DHT22;6349;50.904;6.136;2023-07-20T03:36:47;17.50;99.90
12568;DHT22;6349;50.904;6.136;2023-07-20T03:38:49;17.50;99.90
12568;DHT22;6349;50.904;6.136;2023-07-20T03:40:50;17.50;99.90
12568;DHT22;6349;50.904;6.136;2023-07-20T03:42:51;17.40;99.90
12568;DHT22;6349;50.904;6.136;2023-07-20T03:44:52;17.40;99.90
12568;DHT22;6349;50.904;6.136;2023-07-20T03:46:54;17.40;99.90
12568;DHT22;6349;50.904;6.136;2023-07-20T03:48:56;17.40;99.90
12568;DHT22;6349;50.904;6.136;2023-07-20T03:50:56;17.40;99.90
12568;DHT22;6349;50.904;6.136;2023-07-20T03:52:57;17.40;99.90
12568;DHT22;6349;50.904;6.136;2023-07-20T03:54:58;17.40;99.90
12568;DHT22;6349;50.904;6.136;2023-07-20T03:56:59;17.40;99.90
12568;DHT22;6349;50.904;6.136;2023-07-20T03:59:01;17.40;99.90
12568;DHT22;6349;50.904;6.136;2023-07-20T04:01:02;17.50;99.90
12568;DHT22;6349;50.904;6.136;2023-07-20T04:03:02;17.40;99.90
12568;DHT22;6349;50.904;6.136;2023-07-20T04:05:03;17.40;99.90
12568;DHT22;6349;50.904;6.136;2023-07-20T04:07:06;17.40;99.90
12568;DHT22;6349;50.904;6.136;2023-07-20T04:09:08;17.40;99.90
12568;DHT22;6349;50.904;6.136;2023-07-20T04:11:10;17.40;99.90
12568;DHT22;6349;50.904;6.136;2023-07-20T04:13:12;17.40;99.90
12568;DHT22;6349;50.904;6.136;2023-07-20T04:15:13;17.40;99.90
12568;DHT22;6349;50.904;6.136;2023-07-20T04:17:15;17.40;99.90
12568;DHT22;6349;50.904;6.136;2023-07-20T04:19:16;17.40;99.90
12568;DHT22;6349;50.904;6.136;2023-07-20T04:21:18;17.40;99.90
12568;DHT22;6349;50.904;6.136;2023-07-20T04:23:18;17.30;99.90
12568;DHT22;6349;50.904;6.136;2023-07-20T04:25:19;17.30;99.90
12568;DHT22;6349;50.904;6.136;2023-07-20T04:27:21;17.40;99.90
12568;DHT22;6349;50.904;6.136;2023-07-20T04:29:23;17.40;99.90
12568;DHT22;6349;50.904;6.136;2023-07-20T04:31:25;17.30;99.90
12568;DHT22;6349;50.904;6.136;2023-07-20T04:33:26;17.30;99.90
12568;DHT22;6349;50.904;6.136;2023-07-20T04:35:48;17.40;99.90
12568;DHT22;6349;50.904;6.136;2023-07-20T04:37:50;17.40;99.90
12568;DHT22;6349;50.904;6.136;2023-07-20T04:39:51;17.40;99.90
12568;DHT22;6349;50.904;6.136;2023-07-20T04:41:51;17.40;99.90
12568;DHT22;6349;50.904;6.136;2023-07-20T04:43:52;17.40;99.90
12568;DHT22;6349;50.904;6.136;2023-07-20T04:45:54;17.40;99.90
12568;DHT22;6349;50.904;6.136;2023-07-20T04:47:55;17.40;99.90
12568;DHT22;6349;50.904;6.136;2023-07-20T04:49:56;17.40;99.90
12568;DHT22;6349;50.904;6.136;2023-07-20T04:51:57;17.50;99.90
12568;DHT22;6349;50.904;6.136;2023-07-20T04:53:58;17.50;99.90
12568;DHT22;6349;50.904;6.136;2023-07-20T04:55:59;17.50;99.90
12568;DHT22;6349;50.904;6.136;2023-07-20T04:58:01;17.40;99.90
12568;DHT22;6349;50.904;6.136;2023-07-20T05:00:03;17.40;99.90
12568;DHT22;6349;50.904;6.136;2023-07-20T05:02:04;17.50;99.90
12568;DHT22;6349;50.904;6.136;2023-07-20T05:04:04;17.50;99.90
12568;DHT22;6349;50.904;6.136;2023-07-20T05:06:05;17.60;99.90
12568;DHT22;6349;50.904;6.136;2023-07-20T05:08:07;17.60;99.90
12568;DHT22;6349;50.904;6.136;2023-07-20T05:10:08;17.50;99.90
12568;DHT22;6349;50.904;6.136;2023-07-20T05:12:10;17.60;99.90
12568;DHT22;6349;50.904;6.136;2023-07-20T05:14:12;17.60;99.90
12568;DHT22;6349;50.904;6.136;2023-07-20T05:16:14;17.50;99.90
12568;DHT22;6349;50.904;6.136;2023-07-20T05:18:14;17.50;99.90
12568;DHT22;6349;50.904;6.136;2023-07-20T05:20:20;17.60;99.90
12568;DHT22;6349;50.904;6.136;2023-07-20T05:22:21;17.60;99.90
12568;DHT22;6349;50.904;6.136;2023-07-20T05:24:22;17.60;99.90
12568;DHT22;6349;50.904;6.136;2023-07-20T05:26:24;17.60;99.90
12568;DHT22;6349;50.904;6.136;2023-07-20T05:28:26;17.50;99.90
12568;DHT22;6349;50.904;6.136;2023-07-20T05:30:27;17.60;99.90
12568;DHT22;6349;50.904;6.136;2023-07-20T05:32:29;17.60;99.90
12568;DHT22;6349;50.904;6.136;2023-07-20T05:34:30;17.60;99.90
12568;DHT22;6349;50.904;6.136;2023-07-20T05:36:32;17.60;99.90
12568;DHT22;6349;50.904;6.136;2023-07-20T05:38:32;17.50;99.90
12568;DHT22;6349;50.904;6.136;2023-07-20T05:40:33;17.60;99.90
12568;DHT22;6349;50.904;6.136;2023-07-20T05:42:33;17.50;99.90
12568;DHT22;6349;50.904;6.136;2023-07-20T05:44:34;17.50;99.90
12568;DHT22;6349;50.904;6.136;2023-07-20T05:46:36;17.60;99.90
12568;DHT22;6349;50.904;6.136;2023-07-20T05:48:38;17.60;99.90
12568;DHT22;6349;50.904;6.136;2023-07-20T05:50:42;17.60;99.90
12568;DHT22;6349;50.904;6.136;2023-07-20T05:52:44;17.60;99.90
12568;DHT22;6349;50.904;6.136;2023-07-20T05:54:46;17.70;99.90
12568;DHT22;6349;50.904;6.136;2023-07-20T05:56:47;17.60;99.90
12568;DHT22;6349;50.904;6.136;2023-07-20T05:58:49;17.60;99.90
12568;DHT22;6349;50.904;6.136;2023-07-20T06:00:50;17.60;99.90
12568;DHT22;6349;50.904;6.136;2023-07-20T06:02:51;17.60;99.90
12568;DHT22;6349;50.904;6.136;2023-07-20T06:04:54;17.60;99.90
12568;DHT22;6349;50.904;6.136;2023-07-20T06:06:56;17.60;99.90
12568;DHT22;6349;50.904;6.136;2023-07-20T06:08:57;17.60;99.90
12568;DHT22;6349;50.904;6.136;2023-07-20T06:10:58;17.60;99.90
12568;DHT22;6349;50.904;6.136;2023-07-20T06:13:00;17.60;99.90
12568;DHT22;6349;50.904;6.136;2023-07-20T06:15:05;17.70;99.90
12568;DHT22;6349;50.904;6.136;2023-07-20T06:17:07;17.70;99.90
12568;DHT22;6349;50.904;6.136;2023-07-20T06:19:07;17.60;99.90
12568;DHT22;6349;50.904;6.136;2023-07-20T06:21:08;17.70;99.90
12568;DHT22;6349;50.904;6.136;2023-07-20T06:23:09;17.70;99.90
12568;DHT22;6349;50.904;6.136;2023-07-20T06:25:10;17.80;99.90
12568;DHT22;6349;50.904;6.136;2023-07-20T06:27:12;17.70;99.90
12568;DHT22;6349;50.904;6.136;2023-07-20T06:29:14;17.80;99.90
12568;DHT22;6349;50.904;6.136;2023-07-20T06:31:14;17.70;99.90
12568;DHT22;6349;50.904;6.136;2023-07-20T06:33:16;17.70;99.90
12568;DHT22;6349;50.904;6.136;2023-07-20T06:35:16;17.80;99.90
12568;DHT22;6349;50.904;6.136;2023-07-20T06:37:19;17.80;99.90
12568;DHT22;6349;50.904;6.136;2023-07-20T06:39:20;17.80;99.90
12568;DHT22;6349;50.904;6.136;2023-07-20T06:41:22;17.70;99.90
12568;DHT22;6349;50.904;6.136;2023-07-20T06:43:22;17.70;99.90
12568;DHT22;6349;50.904;6.136;2023-07-20T06:45:24;17.70;99.90
12568;DHT22;6349;50.904;6.136;2023-07-20T06:47:25;17.70;99.90
12568;DHT22;6349;50.904;6.136;2023-07-20T06:49:30;17.70;99.90
12568;DHT22;6349;50.904;6.136;2023-07-20T06:51:30;17.80;99.90
12568;DHT22;6349;50.904;6.136;2023-07-20T06:53:31;17.80;99.90
12568;DHT22;6349;50.904;6.136;2023-07-20T06:55:32;17.90;99.90
12568;DHT22;6349;50.904;6.136;2023-07-20T06:57:33;18.00;99.90
12568;DHT22;6349;50.904;6.136;2023-07-20T06:59:34;18.10;99.90
12568;DHT22;6349;50.904;6.136;2023-07-20T07:01:34;18.10;99.90
12568;DHT22;6349;50.904;6.136;2023-07-20T07:03:36;18.00;99.90
12568;DHT22;6349;50.904;6.136;2023-07-20T07:05:38;18.00;99.90
12568;DHT22;6349;50.904;6.136;2023-07-20T07:07:39;18.00;99.90
12568;DHT22;6349;50.904;6.136;2023-07-20T07:09:41;18.10;99.90
12568;DHT22;6349;50.904;6.136;2023-07-20T07:11:42;18.20;99.90
12568;DHT22;6349;50.904;6.136;2023-07-20T07:13:42;18.40;99.90
12568;DHT22;6349;50.904;6.136;2023-07-20T07:15:45;18.40;99.90
12568;DHT22;6349;50.904;6.136;2023-07-20T07:17:47;18.60;99.90
12568;DHT22;6349;50.904;6.136;2023-07-20T07:19:48;18.50;99.90
12568;DHT22;6349;50.904;6.136;2023-07-20T07:21:49;18.60;99.90
12568;DHT22;6349;50.904;6.136;2023-07-20T07:23:49;18.70;99.90
12568;DHT22;6349;50.904;6.136;2023-07-20T07:25:51;18.80;99.90
12568;DHT22;6349;50.904;6.136;2023-07-20T07:27:53;18.80;99.90
12568;DHT22;6349;50.904;6.136;2023-07-20T07:29:55;18.90;99.90
12568;DHT22;6349;50.904;6.136;2023-07-20T07:31:56;18.90;99.90
12568;DHT22;6349;50.904;6.136;2023-07-20T07:33:57;19.00;99.90
12568;DHT22;6349;50.904;6.136;2023-07-20T07:35:59;19.00;99.90
12568;DHT22;6349;50.904;6.136;2023-07-20T07:37:59;19.00;99.90
12568;DHT22;6349;50.904;6.136;2023-07-20T07:40:00;19.00;99.90
12568;DHT22;6349;50.904;6.136;2023-07-20T07:42:00;19.10;99.90
12568;DHT22;6349;50.904;6.136;2023-07-20T07:44:01;19.00;99.90
12568;DHT22;6349;50.904;6.136;2023-07-20T07:46:03;19.00;99.90
12568;DHT22;6349;50.904;6.136;2023-07-20T07:48:07;19.10;99.90
12568;DHT22;6349;50.904;6.136;2023-07-20T07:50:09;19.20;99.90
12568;DHT22;6349;50.904;6.136;2023-07-20T07:52:11;19.20;99.90
12568;DHT22;6349;50.904;6.136;2023-07-20T07:54:13;19.30;99.90
12568;DHT22;6349;50.904;6.136;2023-07-20T07:56:15;19.30;99.90
12568;DHT22;6349;50.904;6.136;2023-07-20T07:58:18;19.40;99.90
12568;DHT22;6349;50.904;6.136;2023-07-20T08:00:20;19.40;99.90
12568;DHT22;6349;50.904;6.136;2023-07-20T08:02:22;19.40;99.90
12568;DHT22;6349;50.904;6.136;2023-07-20T08:04:24;19.40;99.90
12568;DHT22;6349;50.904;6.136;2023-07-20T08:06:26;19.40;99.90
12568;DHT22;6349;50.904;6.136;2023-07-20T08:08:28;19.40;99.90
12568;DHT22;6349;50.904;6.136;2023-07-20T08:10:30;19.40;99.90
12568;DHT22;6349;50.904;6.136;2023-07-20T08:12:32;19.40;99.90
12568;DHT22;6349;50.904;6.136;2023-07-20T08:14:34;19.50;99.90
12568;DHT22;6349;50.904;6.136;2023-07-20T08:16:36;19.60;99.90
12568;DHT22;6349;50.904;6.136;2023-07-20T08:18:37;19.60;99.90
12568;DHT22;6349;50.904;6.136;2023-07-20T08:20:39;19.60;99.90
12568;DHT22;6349;50.904;6.136;2023-07-20T08:22:40;19.60;99.90
12568;DHT22;6349;50.904;6.136;2023-07-20T08:24:44;19.60;99.90
12568;DHT22;6349;50.904;6.136;2023-07-20T08:26:48;19.70;99.90
12568;DHT22;6349;50.904;6.136;2023-07-20T08:28:52;19.80;99.90
12568;DHT22;6349;50.904;6.136;2023-07-20T08:30:54;19.70;99.90
12568;DHT22;6349;50.904;6.136;2023-07-20T08:32:56;19.70;99.90
12568;DHT22;6349;50.904;6.136;2023-07-20T08:34:57;19.70;99.90
12568;DHT22;6349;50.904;6.136;2023-07-20T08:36:59;19.60;99.90
12568;DHT22;6349;50.904;6.136;2023-07-20T08:39:00;19.50;99.90
12568;DHT22;6349;50.904;6.136;2023-07-20T08:41:05;19.50;99.90
12568;DHT22;6349;50.904;6.136;2023-07-20T08:43:07;19.60;99.90
12568;DHT22;6349;50.904;6.136;2023-07-20T08:45:09;19.70;99.90
12568;DHT22;6349;50.904;6.136;2023-07-20T08:47:14;19.70;99.90
12568;DHT22;6349;50.904;6.136;2023-07-20T08:49:17;19.80;99.90
12568;DHT22;6349;50.904;6.136;2023-07-20T08:51:21;19.80;99.90
12568;DHT22;6349;50.904;6.136;2023-07-20T08:53:23;19.90;99.90
12568;DHT22;6349;50.904;6.136;2023-07-20T08:55:28;20.00;99.90
12568;DHT22;6349;50.904;6.136;2023-07-20T08:57:34;20.00;99.90
12568;DHT22;6349;50.904;6.136;2023-07-20T08:59:38;20.10;99.90
12568;DHT22;6349;50.904;6.136;2023-07-20T09:01:39;20.00;99.90
12568;DHT22;6349;50.904;6.136;2023-07-20T09:03:46;20.00;99.90
12568;DHT22;6349;50.904;6.136;2023-07-20T09:05:48;20.00;99.90
12568;DHT22;6349;50.904;6.136;2023-07-20T09:07:52;20.00;99.90
12568;DHT22;6349;50.904;6.136;2023-07-20T09:09:57;20.10;99.90
12568;DHT22;6349;50.904;6.136;2023-07-20T09:11:59;20.30;99.90
12568;DHT22;6349;50.904;6.136;2023-07-20T09:14:08;20.20;99.90
12568;DHT22;6349;50.904;6.136;2023-07-20T09:16:13;20.30;99.90
12568;DHT22;6349;50.904;6.136;2023-07-20T09:18:27;20.40;99.90
12568;DHT22;6349;50.904;6.136;2023-07-20T09:20:31;20.40;99.90
12568;DHT22;6349;50.904;6.136;2023-07-20T09:22:32;20.40;99.90
12568;DHT22;6349;50.904;6.136;2023-07-20T09:24:33;20.30;99.90
12568;DHT22;6349;50.904;6.136;2023-07-20T09:26:41;20.50;99.90
12568;DHT22;6349;50.904;6.136;2023-07-20T09:28:52;20.50;99.90
12568;DHT22;6349;50.904;6.136;2023-07-20T09:30:54;20.60;99.90
12568;DHT22;6349;50.904;6.136;2023-07-20T09:32:55;20.70;99.90
12568;DHT22;6349;50.904;6.136;2023-07-20T09:34:56;20.80;99.90
12568;DHT22;6349;50.904;6.136;2023-07-20T09:36:57;21.00;99.90
12568;DHT22;6349;50.904;6.136;2023-07-20T09:38:59;21.00;99.90
12568;DHT22;6349;50.904;6.136;2023-07-20T09:41:00;21.20;99.90
12568;DHT22;6349;50.904;6.136;2023-07-20T09:43:00;21.00;99.90
12568;DHT22;6349;50.904;6.136;2023-07-20T09:45:01;20.90;99.90
12568;DHT22;6349;50.904;6.136;2023-07-20T09:47:03;20.70;99.90
12568;DHT22;6349;50.904;6.136;2023-07-20T09:49:08;20.60;99.90
12568;DHT22;6349;50.904;6.136;2023-07-20T09:51:09;20.70;99.90
12568;DHT22;6349;50.904;6.136;2023-07-20T09:53:13;20.50;99.90
12568;DHT22;6349;50.904;6.136;2023-07-20T09:55:14;20.50;99.90
12568;DHT22;6349;50.904;6.136;2023-07-20T09:57:15;20.50;99.90
12568;DHT22;6349;50.904;6.136;2023-07-20T09:59:16;20.50;99.90
12568;DHT22;6349;50.904;6.136;2023-07-20T10:01:20;20.60;99.90
12568;DHT22;6349;50.904;6.136;2023-07-20T10:03:29;20.70;99.90
12568;DHT22;6349;50.904;6.136;2023-07-20T10:05:33;20.70;99.90
12568;DHT22;6349;50.904;6.136;2023-07-20T10:07:44;20.90;99.90
12568;DHT22;6349;50.904;6.136;2023-07-20T10:09:46;20.90;99.90
12568;DHT22;6349;50.904;6.136;2023-07-20T10:11:50;21.00;99.90
12568;DHT22;6349;50.904;6.136;2023-07-20T10:13:53;21.10;99.90
12568;DHT22;6349;50.904;6.136;2023-07-20T10:16:03;21.10;99.90
12568;DHT22;6349;50.904;6.136;2023-07-20T10:18:11;21.10;99.90
12568;DHT22;6349;50.904;6.136;2023-07-20T10:20:13;21.20;99.90
12568;DHT22;6349;50.904;6.136;2023-07-20T10:22:25;21.10;99.90
12568;DHT22;6349;50.904;6.136;2023-07-20T10:24:27;21.20;99.90
12568;DHT22;6349;50.904;6.136;2023-07-20T10:26:28;21.20;99.90
12568;DHT22;6349;50.904;6.136;2023-07-20T10:28:29;21.30;99.90
12568;DHT22;6349;50.904;6.136;2023-07-20T10:30:30;21.50;99.90
12568;DHT22;6349;50.904;6.136;2023-07-20T10:32:31;21.50;99.90
12568;DHT22;6349;50.904;6.136;2023-07-20T10:34:32;21.60;99.90
12568;DHT22;6349;50.904;6.136;2023-07-20T10:36:44;21.60;99.90
12568;DHT22;6349;50.904;6.136;2023-07-20T10:40:55;21.40;99.90
12568;DHT22;6349;50.904;6.136;2023-07-20T10:43:07;21.40;99.90
12568;DHT22;6349;50.904;6.136;2023-07-20T10:45:08;21.40;99.90
12568;DHT22;6349;50.904;6.136;2023-07-20T10:47:10;21.40;99.90
12568;DHT22;6349;50.904;6.136;2023-07-20T10:49:11;21.40;99.90
12568;DHT22;6349;50.904;6.136;2023-07-20T10:51:14;21.50;99.90
12568;DHT22;6349;50.904;6.136;2023-07-20T10:53:20;21.60;99.90
12568;DHT22;6349;50.904;6.136;2023-07-20T10:55:20;21.60;99.90
12568;DHT22;6349;50.904;6.136;2023-07-20T10:57:32;21.70;99.90
12568;DHT22;6349;50.904;6.136;2023-07-20T11:01:37;21.70;99.90
12568;DHT22;6349;50.904;6.136;2023-07-20T11:03:39;21.60;99.90
12568;DHT22;6349;50.904;6.136;2023-07-20T11:05:42;21.70;99.90
12568;DHT22;6349;50.904;6.136;2023-07-20T11:07:44;21.60;99.90
12568;DHT22;6349;50.904;6.136;2023-07-20T11:09:45;21.70;99.90
12568;DHT22;6349;50.904;6.136;2023-07-20T11:11:49;21.80;99.90
12568;DHT22;6349;50.904;6.136;2023-07-20T11:14:04;21.90;99.90
12568;DHT22;6349;50.904;6.136;2023-07-20T11:16:06;21.90;99.90
12568;DHT22;6349;50.904;6.136;2023-07-20T11:18:14;22.00;99.90
12568;DHT22;6349;50.904;6.136;2023-07-20T11:20:16;22.20;99.90
12568;DHT22;6349;50.904;6.136;2023-07-20T11:22:17;22.20;99.90
12568;DHT22;6349;50.904;6.136;2023-07-20T11:24:19;22.30;99.90
12568;DHT22;6349;50.904;6.136;2023-07-20T11:26:20;22.50;99.90
12568;DHT22;6349;50.904;6.136;2023-07-20T11:28:21;22.50;99.90
12568;DHT22;6349;50.904;6.136;2023-07-20T11:30:22;22.60;99.90
12568;DHT22;6349;50.904;6.136;2023-07-20T11:32:24;22.70;99.90
12568;DHT22;6349;50.904;6.136;2023-07-20T11:34:26;22.70;99.90
12568;DHT22;6349;50.904;6.136;2023-07-20T11:36:29;22.80;99.90
12568;DHT22;6349;50.904;6.136;2023-07-20T11:38:30;22.80;99.90
12568;DHT22;6349;50.904;6.136;2023-07-20T11:40:30;22.90;99.90
12568;DHT22;6349;50.904;6.136;2023-07-20T11:42:32;22.90;99.90
12568;DHT22;6349;50.904;6.136;2023-07-20T11:44:34;23.10;99.90
12568;DHT22;6349;50.904;6.136;2023-07-20T11:46:36;23.30;99.90
12568;DHT22;6349;50.904;6.136;2023-07-20T11:48:37;23.40;99.90
12568;DHT22;6349;50.904;6.136;2023-07-20T11:50:40;23.40;99.90
12568;DHT22;6349;50.904;6.136;2023-07-20T11:52:42;23.50;99.90
12568;DHT22;6349;50.904;6.136;2023-07-20T11:54:44;23.40;99.90
12568;DHT22;6349;50.904;6.136;2023-07-20T11:56:46;23.30;99.90
12568;DHT22;6349;50.904;6.136;2023-07-20T11:58:47;23.20;99.90
12568;DHT22;6349;50.904;6.136;2023-07-20T12:00:49;23.20;99.90
12568;DHT22;6349;50.904;6.136;2023-07-20T12:02:53;23.30;99.90
12568;DHT22;6349;50.904;6.136;2023-07-20T12:04:54;23.30;99.90
12568;DHT22;6349;50.904;6.136;2023-07-20T12:06:56;23.30;99.90
12568;DHT22;6349;50.904;6.136;2023-07-20T12:08:58;23.40;99.90
12568;DHT22;6349;50.904;6.136;2023-07-20T12:11:00;23.40;99.90
12568;DHT22;6349;50.904;6.136;2023-07-20T12:13:02;23.40;99.90
12568;DHT22;6349;50.904;6.136;2023-07-20T12:15:15;23.20;99.90
12568;DHT22;6349;50.904;6.136;2023-07-20T12:17:17;23.10;99.90
12568;DHT22;6349;50.904;6.136;2023-07-20T12:19:19;23.00;99.90
12568;DHT22;6349;50.904;6.136;2023-07-20T12:21:21;23.10;99.90
12568;DHT22;6349;50.904;6.136;2023-07-20T12:23:23;23.10;99.90
12568;DHT22;6349;50.904;6.136;2023-07-20T12:25:31;23.00;99.90
12568;DHT22;6349;50.904;6.136;2023-07-20T12:27:36;23.00;99.90
12568;DHT22;6349;50.904;6.136;2023-07-20T12:29:38;22.90;99.90
12568;DHT22;6349;50.904;6.136;2023-07-20T12:31:39;22.90;99.90
12568;DHT22;6349;50.904;6.136;2023-07-20T12:33:40;22.90;99.90
12568;DHT22;6349;50.904;6.136;2023-07-20T12:35:40;22.90;99.90
12568;DHT22;6349;50.904;6.136;2023-07-20T12:37:42;22.90;99.90
12568;DHT22;6349;50.904;6.136;2023-07-20T12:39:44;23.10;99.90
12568;DHT22;6349;50.904;6.136;2023-07-20T12:41:48;23.20;99.90
12568;DHT22;6349;50.904;6.136;2023-07-20T12:43:50;23.30;99.90
12568;DHT22;6349;50.904;6.136;2023-07-20T12:45:52;23.30;99.90
12568;DHT22;6349;50.904;6.136;2023-07-20T12:47:54;23.30;99.90
12568;DHT22;6349;50.904;6.136;2023-07-20T12:49:54;23.30;99.90
12568;DHT22;6349;50.904;6.136;2023-07-20T12:51:55;23.30;99.90
12568;DHT22;6349;50.904;6.136;2023-07-20T12:53:56;23.20;99.90
12568;DHT22;6349;50.904;6.136;2023-07-20T12:55:56;23.30;99.90
12568;DHT22;6349;50.904;6.136;2023-07-20T12:57:58;23.30;99.90
12568;DHT22;6349;50.904;6.136;2023-07-20T13:00:00;23.30;99.90
12568;DHT22;6349;50.904;6.136;2023-07-20T13:02:03;23.40;99.90
12568;DHT22;6349;50.904;6.136;2023-07-20T13:04:03;23.50;99.90
12568;DHT22;6349;50.904;6.136;2023-07-20T13:06:05;23.60;99.90
12568;DHT22;6349;50.904;6.136;2023-07-20T13:08:07;23.70;99.90
12568;DHT22;6349;50.904;6.136;2023-07-20T13:10:09;23.70;99.90
12568;DHT22;6349;50.904;6.136;2023-07-20T13:12:10;23.70;99.90
12568;DHT22;6349;50.904;6.136;2023-07-20T13:14:11;23.60;99.90